Louisiana State University, Louisiana
Current Conditions -  °F | °C
As of 1:53 AM on Friday 31 Oct 2014 (Local Time) from KBTR Reporting Station
Clear Clear  
Wind Chill: 50°   Ceiling: Unl
Heat Index: 50°   Visibility: 10mi
Dew Point: 46°   Wind: 0mph
Humidity: 86%   Direction: NA
Pressure: 30.07"   Gusts: NA
Location:  30.4089°N, 91.1938°W
Report Text: KBTR 310653Z 00000KT 10SM CLR 10/08 A3007 RMK AO2 SLP180 T01000078
Loading
Personal Weather Stations






























Interactive Weather Map
Tropical Storm Tracking
New forecast layout! Learn more

10-Day Weather Forecast

Advertisements
Track Severe Weather on mobile